createdAt,value
2017-11-03T00:02:13.903Z,58.48
2017-11-03T00:04:41.465Z,58.54
2017-11-03T00:07:09.055Z,58.27
2017-11-03T00:09:36.587Z,58.80
2017-11-03T00:12:04.139Z,58.86
2017-11-03T00:14:31.903Z,58.69
2017-11-03T00:17:00.104Z,58.69
2017-11-03T00:19:27.643Z,58.80
2017-11-03T00:21:55.383Z,58.68
2017-11-03T00:24:22.918Z,58.48
2017-11-03T00:26:50.460Z,58.82
2017-11-03T00:29:18.363Z,58.62
2017-11-03T00:31:45.945Z,58.80
2017-11-03T00:34:13.504Z,58.86
2017-11-03T00:36:41.984Z,58.79
2017-11-03T00:39:09.541Z,58.89
2017-11-03T00:41:37.119Z,59.03
2017-11-03T00:44:04.716Z,59.08
2017-11-03T00:46:32.255Z,59.06
2017-11-03T00:48:59.796Z,59.29
2017-11-03T00:51:27.543Z,59.05
2017-11-03T00:53:55.101Z,59.32
2017-11-03T00:56:22.660Z,59.21
2017-11-03T00:58:50.631Z,59.29
2017-11-03T01:01:18.189Z,59.25
2017-11-03T01:03:45.752Z,59.18
2017-11-03T01:06:13.511Z,59.31
2017-11-03T01:08:41.069Z,59.29
2017-11-03T01:11:08.629Z,59.55
2017-11-03T01:13:36.377Z,59.29
2017-11-03T01:16:03.896Z,59.40
2017-11-03T01:18:31.437Z,59.55
2017-11-03T01:20:59.316Z,59.59
2017-11-03T01:23:26.856Z,59.77
2017-11-03T01:25:54.429Z,59.67
2017-11-03T01:28:22.061Z,59.83
2017-11-03T01:30:49.614Z,59.80
2017-11-03T01:33:17.173Z,60.12
2017-11-03T01:35:44.920Z,60.57
2017-11-03T01:38:12.498Z,61.20
2017-11-03T01:40:40.056Z,61.30
2017-11-03T01:43:07.798Z,61.16
2017-11-03T01:45:35.328Z,61.57
2017-11-03T01:48:02.871Z,61.59
2017-11-03T01:50:30.802Z,61.59
2017-11-03T01:52:58.331Z,61.87
2017-11-03T01:55:25.872Z,61.90
2017-11-03T01:57:53.701Z,61.97
2017-11-03T02:00:21.244Z,62.04
2017-11-03T02:02:48.847Z,61.89
2017-11-03T02:05:16.440Z,62.60
2017-11-03T02:07:43.967Z,62.17
2017-11-03T02:10:11.494Z,62.37
2017-11-03T02:12:39.257Z,62.19
2017-11-03T02:15:07.213Z,62.09
2017-11-03T02:17:34.738Z,62.16
2017-11-03T02:20:02.535Z,63.10
2017-11-03T02:22:30.111Z,63.49
2017-11-03T02:24:57.746Z,63.12
2017-11-03T02:27:25.316Z,63.14
2017-11-03T02:29:52.876Z,63.46
2017-11-03T02:32:20.429Z,63.42
2017-11-03T02:34:48.379Z,63.13
2017-11-03T02:37:15.907Z,62.77
2017-11-03T02:39:43.446Z,63.26
2017-11-03T02:42:11.285Z,63.20
2017-11-03T02:44:38.843Z,63.23
2017-11-03T02:47:06.415Z,63.36
2017-11-03T02:49:33.987Z,63.54
2017-11-03T02:52:01.517Z,64.57
2017-11-03T02:54:29.048Z,63.64
2017-11-03T02:56:56.651Z,63.82
2017-11-03T02:59:24.197Z,63.34
2017-11-03T03:01:51.745Z,63.54
2017-11-03T03:04:19.459Z,63.40
2017-11-03T03:06:46.992Z,63.12
2017-11-03T03:09:14.528Z,63.14
2017-11-03T03:11:42.197Z,63.14
2017-11-03T03:14:09.757Z,63.09
2017-11-03T03:16:37.317Z,62.99
2017-11-03T03:19:05.067Z,63.01
2017-11-03T03:21:32.595Z,63.36
2017-11-03T03:24:00.127Z,62.99
2017-11-03T03:26:27.949Z,62.99
2017-11-03T03:28:55.482Z,63.19
2017-11-03T03:31:23.041Z,63.43
2017-11-03T03:33:50.743Z,63.06
2017-11-03T03:36:18.300Z,63.28
2017-11-03T03:38:45.859Z,64.47
2017-11-03T03:41:13.443Z,64.91
2017-11-03T03:43:40.975Z,65.26
2017-11-03T03:46:08.537Z,65.16
2017-11-03T03:48:36.139Z,64.89
2017-11-03T03:51:03.687Z,64.88
2017-11-03T03:53:31.220Z,65.01
2017-11-03T03:55:58.958Z,64.36
2017-11-03T03:58:26.487Z,64.21
2017-11-03T04:00:54.011Z,63.96
2017-11-03T04:03:21.861Z,63.72
2017-11-03T04:05:49.418Z,63.78
2017-11-03T04:08:16.977Z,63.47
2017-11-03T04:10:44.583Z,63.47
2017-11-03T04:13:12.122Z,63.70
2017-11-03T04:15:39.655Z,63.69
2017-11-03T04:18:07.251Z,63.78
2017-11-03T04:20:34.803Z,63.85
2017-11-03T04:23:02.334Z,63.76
2017-11-03T04:25:29.914Z,63.55
2017-11-03T04:27:57.443Z,63.56
2017-11-03T04:30:25.011Z,63.52
2017-11-03T04:32:52.775Z,63.62
2017-11-03T04:35:20.309Z,63.49
2017-11-03T04:37:47.834Z,63.63
2017-11-03T04:40:15.537Z,63.45
2017-11-03T04:42:43.071Z,63.57
2017-11-03T04:45:10.599Z,63.76
2017-11-03T04:47:38.336Z,64.11
2017-11-03T04:50:05.893Z,64.11
2017-11-03T04:52:33.451Z,64.26
2017-11-03T04:55:01.426Z,64.21
2017-11-03T04:57:28.997Z,64.37
2017-11-03T04:59:56.526Z,64.16
2017-11-03T05:02:24.490Z,64.12
2017-11-03T05:04:52.016Z,64.24
2017-11-03T05:07:19.544Z,64.15
2017-11-03T05:09:47.131Z,64.28
2017-11-03T05:12:15.694Z,64.45
2017-11-03T05:14:43.220Z,64.35
2017-11-03T05:17:10.990Z,64.34
2017-11-03T05:19:38.546Z,64.51
2017-11-03T05:22:06.076Z,64.95
2017-11-03T05:24:33.751Z,64.60
2017-11-03T05:27:01.329Z,64.39
2017-11-03T05:29:28.859Z,64.22
2017-11-03T05:31:56.731Z,64.39
2017-11-03T05:34:24.250Z,64.88
2017-11-03T05:36:51.781Z,64.60
2017-11-03T05:39:19.531Z,64.77
2017-11-03T05:41:47.091Z,64.77
2017-11-03T05:44:14.614Z,64.89
2017-11-03T05:46:42.183Z,64.68
2017-11-03T05:49:09.706Z,64.45
2017-11-03T05:51:37.231Z,64.51
2017-11-03T05:54:05.170Z,64.32
2017-11-03T05:56:32.699Z,64.39
2017-11-03T05:59:00.229Z,64.27
2017-11-03T06:01:28.258Z,64.22
2017-11-03T06:03:55.788Z,64.10
2017-11-03T06:06:23.328Z,64.24
2017-11-03T06:08:50.911Z,64.26
2017-11-03T06:11:18.444Z,64.31
2017-11-03T06:13:45.971Z,64.43
2017-11-03T06:16:13.732Z,64.46
2017-11-03T06:18:41.268Z,64.49
2017-11-03T06:21:08.807Z,64.22
2017-11-03T06:23:36.522Z,64.13
2017-11-03T06:26:04.073Z,63.93
2017-11-03T06:28:31.603Z,63.80
2017-11-03T06:30:59.499Z,63.95
2017-11-03T06:33:27.136Z,63.68
2017-11-03T06:35:54.671Z,63.46
2017-11-03T06:38:22.567Z,63.35
2017-11-03T06:40:50.092Z,63.29
2017-11-03T06:43:17.615Z,63.04
2017-11-03T06:45:45.367Z,62.96
2017-11-03T06:48:12.925Z,63.28
2017-11-03T06:50:40.460Z,63.45
2017-11-03T06:53:08.052Z,63.42
2017-11-03T06:55:35.601Z,63.37
2017-11-03T06:58:03.163Z,63.00
2017-11-03T07:00:30.739Z,62.92
2017-11-03T07:02:58.266Z,62.73
2017-11-03T07:05:25.800Z,62.83
2017-11-03T07:07:54.298Z,62.69
2017-11-03T07:10:21.827Z,62.74
2017-11-03T07:12:49.354Z,62.47
2017-11-03T07:15:17.103Z,62.46
2017-11-03T07:17:44.657Z,62.28
2017-11-03T07:20:12.199Z,62.63
2017-11-03T07:22:39.912Z,62.89
2017-11-03T07:25:07.446Z,62.41
2017-11-03T07:27:34.995Z,62.13
2017-11-03T07:30:02.847Z,62.27
2017-11-03T07:32:30.422Z,62.18
2017-11-03T07:34:57.981Z,61.88
2017-11-03T07:37:25.730Z,61.73
2017-11-03T07:39:53.307Z,62.04
2017-11-03T07:42:20.863Z,62.07
2017-11-03T07:44:48.605Z,62.12
2017-11-03T07:47:16.187Z,62.77
2017-11-03T07:49:43.722Z,62.15
2017-11-03T07:52:11.555Z,62.74
2017-11-03T07:54:39.087Z,62.42
2017-11-03T07:57:06.633Z,62.15
2017-11-03T07:59:34.508Z,63.19
2017-11-03T08:02:02.052Z,62.20
2017-11-03T08:04:30.544Z,61.93
2017-11-03T08:06:58.284Z,61.71
2017-11-03T08:09:25.855Z,61.44
2017-11-03T08:11:53.395Z,62.24
2017-11-03T08:14:21.008Z,63.45
2017-11-03T08:16:48.550Z,62.42
2017-11-03T08:19:16.093Z,61.61
2017-11-03T08:21:43.655Z,60.64
2017-11-03T08:24:11.211Z,60.62
2017-11-03T08:26:38.772Z,60.29
2017-11-03T08:29:06.340Z,60.05
2017-11-03T08:31:33.860Z,59.94
2017-11-03T08:34:01.384Z,59.38
2017-11-03T08:36:29.126Z,58.98
2017-11-03T08:38:56.674Z,58.91
2017-11-03T08:41:24.637Z,58.56
2017-11-03T08:43:52.501Z,58.45
2017-11-03T08:46:20.051Z,58.16
2017-11-03T08:48:48.759Z,58.98
2017-11-03T08:51:16.511Z,60.16
2017-11-03T08:53:44.071Z,60.31
2017-11-03T08:56:11.634Z,61.18
2017-11-03T08:58:39.501Z,60.48
2017-11-03T09:01:07.156Z,61.12
2017-11-03T09:03:34.675Z,61.47
2017-11-03T09:06:02.372Z,60.30
2017-11-03T09:08:29.932Z,60.01
2017-11-03T09:10:57.467Z,59.22
2017-11-03T09:13:25.564Z,58.83
2017-11-03T09:15:53.131Z,58.96
2017-11-03T09:18:20.685Z,57.61
2017-11-03T09:20:48.448Z,58.08
2017-11-03T09:23:16.009Z,57.24
2017-11-03T09:25:43.574Z,56.13
2017-11-03T09:28:11.419Z,56.71
2017-11-03T09:30:38.940Z,55.91
2017-11-03T09:33:06.468Z,56.09
2017-11-03T09:35:34.054Z,55.57
2017-11-03T09:38:01.588Z,54.40
2017-11-03T09:40:29.138Z,54.39
2017-11-03T09:42:56.874Z,53.87
2017-11-03T09:45:24.399Z,53.50
2017-11-03T09:47:51.928Z,52.06
2017-11-03T09:50:20.731Z,51.08
2017-11-03T09:52:48.284Z,50.39
2017-11-03T09:55:15.958Z,50.35
2017-11-03T09:57:43.677Z,51.67
2017-11-03T10:00:11.236Z,51.18
2017-11-03T10:02:38.795Z,51.79
2017-11-03T10:05:06.559Z,51.75
2017-11-03T10:07:34.120Z,51.46
2017-11-03T10:10:01.679Z,52.45
2017-11-03T10:12:29.430Z,51.91
2017-11-03T10:14:56.955Z,52.78
2017-11-03T10:17:24.479Z,51.89
2017-11-03T10:19:52.046Z,51.35
2017-11-03T10:22:20.498Z,51.88
2017-11-03T10:24:48.056Z,50.70
2017-11-03T10:27:15.802Z,50.71
2017-11-03T10:29:43.331Z,50.40
2017-11-03T10:32:10.939Z,50.54
2017-11-03T10:34:38.521Z,50.86
2017-11-03T10:37:06.047Z,50.25
2017-11-03T10:39:34.536Z,50.13
2017-11-03T10:42:02.301Z,49.30
2017-11-03T10:44:30.076Z,49.00
2017-11-03T10:46:57.766Z,49.12
2017-11-03T10:49:25.594Z,48.79
2017-11-03T10:51:53.184Z,48.79
2017-11-03T10:54:20.723Z,49.62
2017-11-03T10:56:48.559Z,49.52
2017-11-03T10:59:16.079Z,48.85
2017-11-03T11:01:43.615Z,48.95
2017-11-03T11:04:11.481Z,48.15
2017-11-03T11:06:39.029Z,47.76
2017-11-03T11:09:06.564Z,48.19
2017-11-03T11:11:34.443Z,48.70
2017-11-03T11:14:02.016Z,48.38
2017-11-03T11:16:29.547Z,47.62
2017-11-03T11:18:57.272Z,47.80
2017-11-03T11:21:24.858Z,47.35
2017-11-03T11:23:52.378Z,48.01
2017-11-03T11:26:20.107Z,47.42
2017-11-03T11:28:47.676Z,47.23
2017-11-03T11:31:15.225Z,47.52
2017-11-03T11:33:42.993Z,49.01
2017-11-03T11:36:10.545Z,48.68
2017-11-03T11:38:38.094Z,47.46
2017-11-03T11:41:05.955Z,46.60
2017-11-03T11:43:33.478Z,45.79
2017-11-03T11:46:01.008Z,45.20
2017-11-03T11:48:28.995Z,45.64
2017-11-03T11:50:56.528Z,47.05
2017-11-03T11:53:24.996Z,47.11
2017-11-03T11:55:52.557Z,47.40
2017-11-03T11:58:20.117Z,47.84
2017-11-03T12:00:47.672Z,48.11
2017-11-03T12:03:15.415Z,48.42
2017-11-03T12:05:42.996Z,48.81
2017-11-03T12:08:10.546Z,47.74
2017-11-03T12:10:38.421Z,47.32
2017-11-03T12:13:05.988Z,47.25
2017-11-03T12:15:33.539Z,46.79
2017-11-03T12:18:01.316Z,46.80
2017-11-03T12:20:28.866Z,48.68
2017-11-03T12:22:56.718Z,48.32
2017-11-03T12:25:24.491Z,47.94
2017-11-03T12:27:52.152Z,47.62
2017-11-03T12:30:19.712Z,48.32
2017-11-03T12:32:47.588Z,48.03
2017-11-03T12:35:15.160Z,48.40
2017-11-03T12:37:42.711Z,48.92
2017-11-03T12:40:10.384Z,48.74
2017-11-03T12:42:37.915Z,48.60
2017-11-03T12:45:05.785Z,48.82
2017-11-03T12:47:33.630Z,48.60
2017-11-03T12:50:01.217Z,48.96
2017-11-03T12:52:29.812Z,48.22
2017-11-03T12:54:57.777Z,48.75
2017-11-03T12:57:25.525Z,49.49
2017-11-03T12:59:53.300Z,48.96
2017-11-03T13:02:21.115Z,49.92
2017-11-03T13:04:48.818Z,50.06
2017-11-03T13:07:16.514Z,48.93
2017-11-03T13:09:44.641Z,49.04
2017-11-03T13:12:12.415Z,48.58
2017-11-03T13:14:40.342Z,48.63
2017-11-03T13:17:08.061Z,48.32
2017-11-03T13:19:35.810Z,47.99
2017-11-03T13:22:03.622Z,47.41
2017-11-03T13:24:31.391Z,47.18
2017-11-03T13:26:59.204Z,46.46
2017-11-03T13:29:26.866Z,45.81
2017-11-03T13:31:55.012Z,45.18
2017-11-03T13:34:22.803Z,44.58
2017-11-03T13:36:50.336Z,44.89
2017-11-03T13:39:18.126Z,44.03
2017-11-03T13:41:45.685Z,43.56
2017-11-03T13:44:13.347Z,43.39
2017-11-03T13:46:41.110Z,43.54
2017-11-03T13:49:08.668Z,43.79
2017-11-03T13:51:36.535Z,43.99
2017-11-03T13:54:04.403Z,44.38
2017-11-03T13:56:32.271Z,44.19
2017-11-03T13:58:59.841Z,44.82
2017-11-03T14:01:27.908Z,44.98
2017-11-03T14:03:55.662Z,45.42
2017-11-03T14:06:23.528Z,45.69
2017-11-03T14:08:52.393Z,45.88
2017-11-03T14:11:20.080Z,45.87
2017-11-03T14:13:47.642Z,47.21
2017-11-03T14:16:15.499Z,47.77
2017-11-03T14:18:43.276Z,47.94
2017-11-03T14:21:10.829Z,48.94
2017-11-03T14:23:38.695Z,50.49
2017-11-03T14:26:06.270Z,50.54
2017-11-03T14:28:33.819Z,51.11
2017-11-03T14:31:01.787Z,51.68
2017-11-03T14:33:29.342Z,51.79
2017-11-03T14:35:57.104Z,52.55
2017-11-03T14:38:24.890Z,52.35
2017-11-03T14:40:52.452Z,52.35
2017-11-03T14:43:20.210Z,53.09
2017-11-03T14:45:48.234Z,53.12
2017-11-03T14:48:16.938Z,53.25
2017-11-03T14:50:44.610Z,53.87
2017-11-03T14:53:12.224Z,53.78
2017-11-03T14:55:39.950Z,54.36
2017-11-03T14:58:07.800Z,54.09
2017-11-03T15:00:36.048Z,54.61
2017-11-03T15:03:03.741Z,55.17
2017-11-03T15:05:31.297Z,55.44
2017-11-03T15:07:59.102Z,55.70
2017-11-03T15:10:26.828Z,55.74
2017-11-03T15:12:54.486Z,55.92
2017-11-03T15:15:22.307Z,56.07
2017-11-03T15:17:49.834Z,55.91
2017-11-03T15:20:17.374Z,56.06
2017-11-03T15:22:45.260Z,56.91
2017-11-03T15:25:12.819Z,56.90
2017-11-03T15:27:40.453Z,57.24
2017-11-03T15:30:08.109Z,57.85
2017-11-03T15:32:35.776Z,57.83
2017-11-03T15:35:03.335Z,58.09
2017-11-03T15:37:30.997Z,58.41
2017-11-03T15:39:58.537Z,58.44
2017-11-03T15:42:26.082Z,58.81
2017-11-03T15:44:53.880Z,59.00
2017-11-03T15:47:21.416Z,59.24
2017-11-03T15:49:48.940Z,59.38
2017-11-03T15:52:16.748Z,59.64
2017-11-03T15:54:44.321Z,59.92
2017-11-03T15:57:11.880Z,60.17
2017-11-03T15:59:39.756Z,60.37
2017-11-03T16:02:07.407Z,60.64
2017-11-03T16:04:35.250Z,60.72
2017-11-03T16:07:03.128Z,61.17
2017-11-03T16:09:30.700Z,61.42
2017-11-03T16:11:58.257Z,61.75
2017-11-03T16:14:26.212Z,61.91
2017-11-03T16:16:53.787Z,62.28
2017-11-03T16:19:21.345Z,62.68
2017-11-03T16:21:49.315Z,62.73
2017-11-03T16:24:16.918Z,63.11
2017-11-03T16:26:44.475Z,63.24
2017-11-03T16:29:12.432Z,63.58
2017-11-03T16:31:44.586Z,63.80
2017-11-03T16:34:12.476Z,64.05
2017-11-03T16:36:40.301Z,64.28
2017-11-03T16:39:07.963Z,64.28
2017-11-03T16:41:36.122Z,64.61
2017-11-03T16:44:04.929Z,64.67
2017-11-03T16:46:33.109Z,64.83
2017-11-03T16:49:00.917Z,64.74
2017-11-03T16:51:29.029Z,64.93
2017-11-03T16:53:57.103Z,64.96
2017-11-03T16:56:25.870Z,65.36
2017-11-03T16:58:54.582Z,65.20
2017-11-03T17:01:22.548Z,65.27
2017-11-03T17:03:50.158Z,65.29
2017-11-03T17:06:19.865Z,65.50
2017-11-03T17:08:48.400Z,65.39
2017-11-03T17:11:17.511Z,65.44
2017-11-03T17:13:49.763Z,65.45
2017-11-03T17:16:18.756Z,65.70
2017-11-03T17:18:47.135Z,65.81
2017-11-03T17:21:15.844Z,65.80
2017-11-03T17:23:43.860Z,65.85
2017-11-03T17:26:12.479Z,65.85
2017-11-03T17:28:40.238Z,65.98
2017-11-03T17:31:08.986Z,65.87
2017-11-03T17:33:39.354Z,66.33
2017-11-03T17:36:06.969Z,66.37
2017-11-03T17:38:35.618Z,66.81
2017-11-03T17:41:03.988Z,66.83
2017-11-03T17:43:32.282Z,66.89
2017-11-03T17:46:00.289Z,66.77
2017-11-03T17:48:28.905Z,66.64
2017-11-03T17:50:56.504Z,66.76
2017-11-03T17:53:24.317Z,66.75
2017-11-03T17:55:51.945Z,66.79
2017-11-03T17:58:19.750Z,66.98
2017-11-03T18:00:47.722Z,67.24
2017-11-03T18:03:15.500Z,66.99
2017-11-03T18:05:43.354Z,67.02
2017-11-03T18:08:11.220Z,67.25
2017-11-03T18:10:38.982Z,67.39
2017-11-03T18:13:07.395Z,67.49
2017-11-03T18:15:35.023Z,67.57
2017-11-03T18:18:02.834Z,67.59
2017-11-03T18:20:30.756Z,68.07
2017-11-03T18:23:00.984Z,67.91
2017-11-03T18:28:11.052Z,67.66
2017-11-03T18:30:38.877Z,67.74
2017-11-03T18:33:07.006Z,67.56
2017-11-03T18:35:34.952Z,67.49
2017-11-03T18:38:02.511Z,67.53
2017-11-03T18:40:30.178Z,67.53
2017-11-03T18:42:57.940Z,67.92
2017-11-03T18:45:25.591Z,68.16
2017-11-03T18:47:53.257Z,68.00
2017-11-03T18:50:21.148Z,67.54
2017-11-03T18:52:48.891Z,67.59
2017-11-03T18:55:16.757Z,67.59
2017-11-03T18:57:44.833Z,67.83
2017-11-03T19:00:12.426Z,67.75
2017-11-03T19:02:40.028Z,67.47
2017-11-03T19:05:08.091Z,67.63
2017-11-03T19:07:35.758Z,68.14
2017-11-03T19:10:05.564Z,67.90
2017-11-03T19:12:33.456Z,67.96
2017-11-03T19:15:01.532Z,67.62
2017-11-03T19:17:29.500Z,68.00
2017-11-03T19:19:57.754Z,67.72
2017-11-03T19:22:25.283Z,67.40
2017-11-03T19:24:53.003Z,67.46
2017-11-03T19:27:21.273Z,67.80
2017-11-03T19:29:48.970Z,67.63
2017-11-03T19:32:16.552Z,67.70
2017-11-03T19:34:44.426Z,67.57
2017-11-03T19:37:12.636Z,67.60
2017-11-03T19:39:40.399Z,67.84
2017-11-03T19:42:08.267Z,68.16
2017-11-03T19:44:35.913Z,68.16
2017-11-03T19:47:03.589Z,68.30
2017-11-03T19:49:31.452Z,68.08
2017-11-03T19:51:59.105Z,68.10
2017-11-03T19:54:26.740Z,68.62
2017-11-03T19:56:54.644Z,68.57
2017-11-03T19:59:22.410Z,68.67
2017-11-03T20:01:50.025Z,68.78
2017-11-03T20:04:18.051Z,69.03
2017-11-03T20:06:45.803Z,69.04
2017-11-03T20:09:13.465Z,69.38
2017-11-03T20:11:41.638Z,68.77
2017-11-03T20:14:09.320Z,68.63
2017-11-03T20:16:37.070Z,68.64
2017-11-03T20:19:05.303Z,70.07
2017-11-03T20:21:33.001Z,69.91
2017-11-03T20:24:01.481Z,69.17
2017-11-03T20:26:29.190Z,69.87
2017-11-03T20:28:57.010Z,69.37
2017-11-03T20:31:24.979Z,70.07
2017-11-03T20:33:52.723Z,69.35
2017-11-03T20:36:20.393Z,68.88
2017-11-03T20:38:48.070Z,68.99
2017-11-03T20:41:16.016Z,68.73
2017-11-03T20:43:43.775Z,69.40
2017-11-03T20:46:11.664Z,68.88
2017-11-03T20:48:40.594Z,68.61
2017-11-03T20:51:09.240Z,68.75
2017-11-03T20:53:36.960Z,68.82
2017-11-03T20:56:04.971Z,68.55
2017-11-03T20:58:32.735Z,68.46
2017-11-03T21:01:00.665Z,68.34
2017-11-03T21:03:28.780Z,68.43
2017-11-03T21:05:56.667Z,68.90
2017-11-03T21:08:24.406Z,68.65
2017-11-03T21:10:52.796Z,68.49
2017-11-03T21:13:20.561Z,68.64
2017-11-03T21:15:48.314Z,68.76
2017-11-03T21:18:16.487Z,69.05
2017-11-03T21:20:44.263Z,69.16
2017-11-03T21:23:12.132Z,69.56
2017-11-03T21:25:40.494Z,69.69
2017-11-03T21:28:08.314Z,70.48
2017-11-03T21:30:36.089Z,71.17
2017-11-03T21:33:04.253Z,70.37
2017-11-03T21:35:32.062Z,69.97
2017-11-03T21:37:59.828Z,69.81
2017-11-03T21:40:28.410Z,69.66
2017-11-03T21:42:56.063Z,69.85
2017-11-03T21:45:23.850Z,69.61
2017-11-03T21:47:51.701Z,69.60
2017-11-03T21:50:20.284Z,70.42
2017-11-03T21:52:48.039Z,70.40
2017-11-03T21:55:16.053Z,70.56
2017-11-03T21:57:44.090Z,70.08
2017-11-03T22:00:11.764Z,69.81
2017-11-03T22:02:39.829Z,69.69
2017-11-03T22:05:07.595Z,69.98
2017-11-03T22:07:35.392Z,69.87
2017-11-03T22:10:03.218Z,69.79
2017-11-03T22:12:31.083Z,69.70
2017-11-03T22:14:59.587Z,69.62
2017-11-03T22:17:27.633Z,69.25
2017-11-03T22:19:55.318Z,69.21
2017-11-03T22:22:24.066Z,69.10
2017-11-03T22:24:52.255Z,69.42
2017-11-03T22:27:20.123Z,69.25
2017-11-03T22:29:48.811Z,69.39
2017-11-03T22:32:16.880Z,69.26
2017-11-03T22:34:44.759Z,69.95
2017-11-03T22:37:12.569Z,69.37
2017-11-03T22:39:41.059Z,69.11
2017-11-03T22:42:08.789Z,69.08
2017-11-03T22:44:36.517Z,69.02
2017-11-03T22:47:04.896Z,69.05
2017-11-03T22:49:32.658Z,69.02
2017-11-03T22:52:01.248Z,68.96
2017-11-03T22:54:29.100Z,69.20
2017-11-03T22:56:56.874Z,69.05
2017-11-03T22:59:24.712Z,69.52
2017-11-03T23:01:52.707Z,70.00
2017-11-03T23:04:20.489Z,70.16
2017-11-03T23:06:48.546Z,70.37
2017-11-03T23:09:16.259Z,69.86
2017-11-03T23:11:44.379Z,69.46
2017-11-03T23:14:11.940Z,69.54
2017-11-03T23:16:39.529Z,69.52
2017-11-03T23:19:07.160Z,68.99
2017-11-03T23:21:34.718Z,68.55
2017-11-03T23:24:02.595Z,69.13
2017-11-03T23:26:30.144Z,70.54
2017-11-03T23:28:57.702Z,71.71
2017-11-03T23:31:25.470Z,71.35
2017-11-03T23:33:53.007Z,71.49
2017-11-03T23:36:20.533Z,71.20
2017-11-03T23:38:48.348Z,70.67
2017-11-03T23:41:15.907Z,70.19
2017-11-03T23:43:43.466Z,70.22
2017-11-03T23:46:11.230Z,69.38
2017-11-03T23:48:38.790Z,70.29
2017-11-03T23:51:06.350Z,71.34
2017-11-03T23:53:34.215Z,71.00
2017-11-03T23:56:01.774Z,70.52
2017-11-03T23:58:29.333Z,72.29
